• Join FlightAware (Why Join?)
  • Login
  • US Flag 
05:19AM EDT


 

Airport Tracker/Info


-or-


 

Live Flight TrackerFlight Track Log ✈ DAL6035 ✈ 10-Apr-2013 ✈ KLGA - KMHT

Flight Track Log - Related Links

Times and Time Zones

All times are in EDT time to prevent confusion due to time zone crossing. See the DAL6035 flight status page for this flight to view local times or setup timezone preferences in your user account.

Time Position Orientation Groundspeed Altitude Reporting Facility
EDT Latitude Longitude Course Direction KTS MPH feet Rate Location/Type
11:44AM 40.7333 -73.8333 72° East 187 215 2,400  Level New York TRACON
11:45AM 40.7500 -73.7667 72° East 251 289 4,800 2,520 Climbing New York TRACON
11:46AM 40.8167 -73.7167 30° Northeast 279 321 7,500 2,160 Climbing New York TRACON
11:48AM 40.9733 -73.5808 33° Northeast 308 354 12,000 1,920 Climbing Boston Center
11:49AM 41.0697 -73.5219 25° Northeast 329 379 14,000 1,740 Climbing Boston Center
11:50AM 41.1556 -73.4794 20° North 352 405 15,600 1,740 Climbing Boston Center
11:51AM 41.2603 -73.4258 21° North 363 418 17,500 1,620 Climbing Boston Center
11:52AM 41.3628 -73.3750 20° North 380 437 18,900 720 Climbing Boston Center
11:53AM 41.4592 -73.3264 21° North 399 459 19,000  Climbing Boston Center
11:54AM 41.5600 -73.2114 40° Northeast 418 481 19,000  Level Boston Center
11:55AM 41.6500 -73.1319 33° Northeast 432 497 19,000  Level Boston Center
11:56AM 41.7708 -73.1331 360° North 393 452 19,000  Level Boston Center
11:57AM 41.8708 -73.1483 354° North 393 452 19,000  Level Boston Center
11:58AM 41.9917 -73.1692 353° North 398 458 19,000  Level Boston Center
11:59AM 42.0875 -73.1842 353° North 390 449 19,000  Level Boston Center
12:00PM 42.2061 -73.2025 353° North 390 449 19,000  Level Boston Center
12:01PM 42.3022 -73.1783 11° North 381 438 19,000  Level Boston Center
12:02PM 42.3778 -73.0583 50° Northeast 398 458 19,000  Level Boston Center
12:03PM 42.4369 -72.9042 62° Northeast 437 503 19,000  Level Boston Center
12:04PM 42.5042 -72.7414 61° Northeast 444 511 19,000 -360 Level Boston Center
12:05PM 42.5628 -72.5950 61° Northeast 449 517 18,400 -1,380 Descending Boston Center
12:06PM 42.6108 -72.4711 62° Northeast 428 493 16,300 -2,340 Descending Boston Center
12:07PM 42.6589 -72.3442 63° Northeast 403 464 13,700 -2,520 Descending Boston Center
12:08PM 42.7108 -72.2111 62° Northeast 370 426 11,200 -1,920 Descending Boston Center
12:09PM 42.7458 -72.1094 65° Northeast 344 396 10,000 -1,440 Descending Boston Center
12:10PM 42.7622 -71.9792 80° East 318 366 8,400 -1,620 Descending Boston Center
12:11PM 42.7803 -71.8714 77° East 295 339 6,800 -1,380 Descending Boston Center
12:13PM 42.7861 -71.7639 86° East 271 312 5,400 -1,260 Descending Boston Center
12:13PM 42.7667 -71.6708 106° East 238 274 4,100 -1,140 Descending Boston Center
12:14PM 42.7956 -71.6139 55° Northeast 188 216 3,200 -960 Descending Boston Center
12:16PM 42.8347 -71.5653 42° Northeast 183 211 2,200 -780 Descending Boston Center
12:16PM 42.8739 -71.5194 41° Northeast 184 212 1,700 -660 Descending Boston Center
12:18PM 42.9050 -71.4792 43° Northeast 148 170 900 -660 Descending Boston Center
12:18PM 42.9317 -71.4475 41° Northeast 138 159 500 -420 Descending Boston Center